Time;durP1;ratioP1;P1;durP2;ratioP2;P2;SDS_P1;SDS_P2;PMS_P1;PMS_P2;Temp;Humidity;BMP_temperature;BMP_pressure;BME280_temperature;BME280_humidity;BME280_pressure;Samples;Min_cycle;Max_cycle;Signal;HPM_P1;HPM_P2
2022/09/15 00:01:55;;;;;;;62.13;34.53;;;;;;;;;;753465;185;919595;-56
2022/09/15 00:04:21;;;;;;;69.77;36.87;;;;;;;;;;749573;184;919536;-55
2022/09/15 00:06:47;;;;;;;70.70;37.30;;;;;;;;;;757927;185;919140;-55
2022/09/15 00:09:13;;;;;;;64.77;36.40;;;;;;;;;;754614;182;920719;-55
2022/09/15 00:11:38;;;;;;;66.70;36.90;;;;;;;;;;759462;184;815101;-55
2022/09/15 00:14:04;;;;;;;64.10;35.97;;;;;;;;;;759589;184;918166;-55
2022/09/15 00:16:30;;;;;;;65.47;37.07;;;;;;;;;;760761;184;817025;-57
2022/09/15 00:18:56;;;;;;;73.77;36.80;;;;;;;;;;757072;184;918858;-55
2022/09/15 00:21:22;;;;;;;69.30;37.00;;;;;;;;;;754776;185;927519;-55
2022/09/15 00:23:48;;;;;;;59.60;35.90;;;;;;;;;;752621;185;917944;-55
2022/09/15 00:26:14;;;;;;;59.97;35.37;;;;;;;;;;757474;184;908554;-55
2022/09/15 00:28:39;;;;;;;58.33;33.53;;;;;;;;;;746871;185;918842;-55
2022/09/15 00:31:05;;;;;;;58.00;36.17;;;;;;;;;;757503;184;919491;-56
2022/09/15 00:33:31;;;;;;;57.13;34.90;;;;;;;;;;752649;184;919021;-56
2022/09/15 00:35:57;;;;;;;74.97;36.73;;;;;;;;;;752815;185;919416;-55
2022/09/15 00:38:23;;;;;;;65.40;35.60;;;;;;;;;;757710;185;820967;-55
2022/09/15 00:40:49;;;;;;;72.60;37.77;;;;;;;;;;753499;185;912751;-56
2022/09/15 00:43:14;;;;;;;66.50;34.70;;;;;;;;;;748566;184;921272;-55
2022/09/15 00:45:40;;;;;;;57.07;32.90;;;;;;;;;;756683;185;921106;-55
2022/09/15 00:48:07;;;;;;;59.90;35.10;;;;;;;;;;754224;184;917673;-56
2022/09/15 00:50:33;;;;;;;63.70;34.50;;;;;;;;;;752959;183;918075;-55
2022/09/15 00:52:58;;;;;;;60.90;34.87;;;;;;;;;;752300;185;918286;-57
2022/09/15 00:55:25;;;;;;;69.60;35.60;;;;;;;;;;755517;186;921248;-56
2022/09/15 00:57:51;;;;;;;64.87;38.27;;;;;;;;;;750045;184;917595;-55
2022/09/15 01:00:17;;;;;;;62.03;34.23;;;;;;;;;;755485;184;919072;-56
2022/09/15 01:02:42;;;;;;;69.57;36.30;;;;;;;;;;753501;185;912681;-55
2022/09/15 01:05:09;;;;;;;65.83;35.90;;;;;;;;;;753526;181;919456;-56
2022/09/15 01:07:36;;;;;;;76.23;38.77;;;;;;;;;;750925;184;817833;-55
2022/09/15 01:10:03;;;;;;;73.83;37.17;;;;;;;;;;760626;183;918452;-55
2022/09/15 01:12:28;;;;;;;58.07;36.50;;;;;;;;;;758928;184;920215;-56
2022/09/15 01:14:54;;;;;;;65.50;37.77;;;;;;;;;;752941;180;890420;-55
2022/09/15 01:17:25;;;;;;;78.00;39.40;;;;;;;;;;752306;184;920279;-56
2022/09/15 01:19:54;;;;;;;80.00;40.97;;;;;;;;;;755995;184;919622;-55
2022/09/15 01:22:25;;;;;;;62.67;38.70;;;;;;;;;;748728;185;919522;-56
2022/09/15 01:24:54;;;;;;;77.23;43.67;;;;;;;;;;757649;184;895427;-55
2022/09/15 01:27:19;;;;;;;72.70;41.17;;;;;;;;;;755989;184;919568;-57
2022/09/15 01:29:48;;;;;;;86.93;47.30;;;;;;;;;;759161;184;919384;-55
2022/09/15 01:34:49;;;;;;;114.23;52.27;;;;;;;;;;752953;184;919894;-55
2022/09/15 01:37:15;;;;;;;107.10;54.10;;;;;;;;;;752415;185;919877;-56
2022/09/15 01:39:41;;;;;;;97.80;50.73;;;;;;;;;;761291;184;920039;-55
2022/09/15 01:42:06;;;;;;;109.10;50.27;;;;;;;;;;751592;184;921052;-57
2022/09/15 01:44:34;;;;;;;100.27;48.43;;;;;;;;;;753568;182;818624;-55
2022/09/15 01:47:00;;;;;;;98.03;48.23;;;;;;;;;;754567;185;921014;-55
2022/09/15 01:49:26;;;;;;;96.57;46.70;;;;;;;;;;753573;183;916648;-55
2022/09/15 01:51:52;;;;;;;96.10;45.77;;;;;;;;;;747921;185;919976;-56
2022/09/15 01:54:19;;;;;;;98.80;44.87;;;;;;;;;;750777;182;918483;-55
2022/09/15 01:56:45;;;;;;;88.87;42.60;;;;;;;;;;760098;184;918441;-55
2022/09/15 01:59:11;;;;;;;86.47;42.27;;;;;;;;;;756216;184;918799;-56
2022/09/15 02:01:42;;;;;;;80.97;38.27;;;;;;;;;;751799;185;919673;-56
2022/09/15 02:04:03;;;;;;;87.93;41.23;;;;;;;;;;751443;185;919589;-56
2022/09/15 02:06:36;;;;;;;88.33;43.37;;;;;;;;;;753994;184;920265;-56
2022/09/15 02:08:57;;;;;;;97.65;42.33;;;;;;;;;;749641;185;921215;-55
2022/09/15 02:11:25;;;;;;;82.07;41.00;;;;;;;;;;748472;183;918959;-56
2022/09/15 02:13:50;;;;;;;80.87;41.83;;;;;;;;;;756362;185;919092;-55
2022/09/15 02:16:18;;;;;;;80.87;40.10;;;;;;;;;;748883;185;919285;-55
2022/09/15 02:18:44;;;;;;;86.00;41.80;;;;;;;;;;755282;184;919494;-57
2022/09/15 02:21:12;;;;;;;84.07;43.97;;;;;;;;;;763916;182;919234;-55
2022/09/15 02:23:38;;;;;;;80.70;39.17;;;;;;;;;;751105;184;817440;-55
2022/09/15 02:26:04;;;;;;;83.00;40.47;;;;;;;;;;754865;184;919201;-55
2022/09/15 02:28:31;;;;;;;81.67;40.47;;;;;;;;;;751205;185;916293;-57
2022/09/15 02:30:56;;;;;;;76.07;40.73;;;;;;;;;;745555;186;919712;-55
2022/09/15 02:33:23;;;;;;;85.93;39.20;;;;;;;;;;754320;184;851398;-55
2022/09/15 02:35:48;;;;;;;81.47;37.93;;;;;;;;;;747522;184;919453;-56
2022/09/15 02:38:14;;;;;;;78.33;37.33;;;;;;;;;;756209;184;920147;-55
2022/09/15 02:40:41;;;;;;;74.93;35.40;;;;;;;;;;756175;184;919181;-56
2022/09/15 02:43:06;;;;;;;77.37;36.00;;;;;;;;;;753022;182;912702;-55
2022/09/15 02:45:32;;;;;;;72.43;37.38;;;;;;;;;;758002;181;920116;-57
2022/09/15 02:47:58;;;;;;;67.87;35.87;;;;;;;;;;751451;185;921239;-57
2022/09/15 02:50:25;;;;;;;75.43;36.13;;;;;;;;;;749764;184;920473;-55
2022/09/15 02:52:49;;;;;;;65.57;35.03;;;;;;;;;;756536;184;919817;-56
2022/09/15 02:55:15;;;;;;;58.07;31.77;;;;;;;;;;750735;182;919197;-56
2022/09/15 02:57:41;;;;;;;55.30;31.23;;;;;;;;;;747350;185;921276;-56
2022/09/15 03:00:12;;;;;;;59.30;33.20;;;;;;;;;;751985;185;818694;-56
2022/09/15 03:02:38;;;;;;;50.13;30.90;;;;;;;;;;758705;184;918941;-55
2022/09/15 03:05:03;;;;;;;50.47;31.63;;;;;;;;;;751663;184;921098;-55
2022/09/15 03:07:30;;;;;;;56.20;30.00;;;;;;;;;;755359;184;884396;-57
2022/09/15 03:09:55;;;;;;;52.50;29.80;;;;;;;;;;754093;184;919061;-55
2022/09/15 03:12:21;;;;;;;43.87;27.07;;;;;;;;;;755614;184;818854;-55
2022/09/15 03:14:47;;;;;;;49.03;27.20;;;;;;;;;;750938;185;918046;-57
2022/09/15 03:17:12;;;;;;;47.40;26.43;;;;;;;;;;752698;183;915908;-56
2022/09/15 03:19:38;;;;;;;38.70;25.17;;;;;;;;;;760183;182;885200;-55
2022/09/15 03:22:04;;;;;;;39.37;25.27;;;;;;;;;;747358;186;916881;-56
2022/09/15 03:24:30;;;;;;;35.60;24.07;;;;;;;;;;753619;184;917748;-55
2022/09/15 03:26:56;;;;;;;41.70;23.00;;;;;;;;;;754367;185;898791;-55
2022/09/15 03:29:22;;;;;;;34.37;22.17;;;;;;;;;;749916;184;920445;-56
2022/09/15 03:31:48;;;;;;;31.90;22.07;;;;;;;;;;754667;182;1021069;-55
2022/09/15 03:34:14;;;;;;;29.43;21.57;;;;;;;;;;756892;181;835140;-56
2022/09/15 03:36:40;;;;;;;24.00;19.33;;;;;;;;;;755878;184;919002;-55
2022/09/15 03:39:05;;;;;;;29.20;19.77;;;;;;;;;;754477;184;888910;-55
2022/09/15 03:41:31;;;;;;;24.97;18.27;;;;;;;;;;755324;184;824180;-55
2022/09/15 03:43:57;;;;;;;24.03;17.50;;;;;;;;;;756418;182;893415;-55
2022/09/15 03:46:23;;;;;;;25.90;16.20;;;;;;;;;;749763;184;919571;-55
2022/09/15 03:48:49;;;;;;;20.57;15.50;;;;;;;;;;754767;184;923132;-55
2022/09/15 03:51:15;;;;;;;23.40;17.00;;;;;;;;;;758627;184;918836;-55
2022/09/15 03:53:40;;;;;;;24.43;16.80;;;;;;;;;;752896;184;876103;-56
2022/09/15 03:56:10;;;;;;;17.57;14.63;;;;;;;;;;752707;184;919906;-56
2022/09/15 03:58:36;;;;;;;23.20;15.83;;;;;;;;;;755178;185;917762;-55
2022/09/15 04:01:02;;;;;;;17.50;12.40;;;;;;;;;;756768;182;919601;-56
2022/09/15 04:03:28;;;;;;;19.00;15.30;;;;;;;;;;749724;184;918200;-57
2022/09/15 04:05:54;;;;;;;20.73;14.83;;;;;;;;;;752315;184;917971;-55
2022/09/15 04:08:20;;;;;;;17.70;13.60;;;;;;;;;;767060;182;920014;-56
2022/09/15 04:10:47;;;;;;;20.80;13.23;;;;;;;;;;750549;185;920136;-55
2022/09/15 04:13:11;;;;;;;19.50;13.97;;;;;;;;;;753673;185;918865;-55
2022/09/15 04:15:37;;;;;;;18.00;14.20;;;;;;;;;;753721;180;920269;-55
2022/09/15 04:18:03;;;;;;;21.90;12.43;;;;;;;;;;735535;185;919583;-56
2022/09/15 04:20:29;;;;;;;18.93;12.60;;;;;;;;;;752868;183;919972;-56
2022/09/15 04:22:55;;;;;;;20.10;12.40;;;;;;;;;;758426;181;918968;-56
2022/09/15 04:25:21;;;;;;;13.80;12.30;;;;;;;;;;755138;185;921496;-55
2022/09/15 04:27:47;;;;;;;17.43;12.10;;;;;;;;;;749805;185;918398;-55
2022/09/15 04:30:13;;;;;;;12.68;10.60;;;;;;;;;;757052;184;919073;-56
2022/09/15 04:32:39;;;;;;;11.40;9.60;;;;;;;;;;753958;183;915619;-56
2022/09/15 04:35:05;;;;;;;16.20;9.87;;;;;;;;;;746809;185;915806;-54
2022/09/15 04:37:32;;;;;;;11.87;10.30;;;;;;;;;;751884;185;916345;-56
2022/09/15 04:39:57;;;;;;;13.80;10.10;;;;;;;;;;759744;184;918726;-55
2022/09/15 04:42:23;;;;;;;15.10;10.43;;;;;;;;;;758012;184;915601;-55
2022/09/15 04:44:49;;;;;;;17.20;11.00;;;;;;;;;;753782;184;916901;-55
2022/09/15 04:47:15;;;;;;;17.43;10.93;;;;;;;;;;758027;184;922424;-56
2022/09/15 04:49:40;;;;;;;13.57;9.73;;;;;;;;;;749788;185;920199;-55
2022/09/15 04:52:06;;;;;;;14.00;9.67;;;;;;;;;;753583;184;919137;-56
2022/09/15 04:54:32;;;;;;;15.37;11.27;;;;;;;;;;753572;184;916611;-55
2022/09/15 04:56:58;;;;;;;13.27;9.15;;;;;;;;;;748821;184;920122;-55
2022/09/15 04:59:24;;;;;;;17.73;9.87;;;;;;;;;;751576;184;921515;-56
2022/09/15 05:01:50;;;;;;;12.87;8.93;;;;;;;;;;749935;184;919161;-55
2022/09/15 05:04:15;;;;;;;10.73;8.90;;;;;;;;;;758644;184;918111;-55
2022/09/15 05:06:41;;;;;;;12.73;9.07;;;;;;;;;;752915;184;919401;-55
2022/09/15 05:09:07;;;;;;;10.53;8.63;;;;;;;;;;753100;180;917786;-55
2022/09/15 05:11:33;;;;;;;11.77;8.57;;;;;;;;;;752856;185;918181;-55
2022/09/15 05:13:59;;;;;;;9.53;8.20;;;;;;;;;;756777;185;822001;-55
2022/09/15 05:16:25;;;;;;;12.68;8.70;;;;;;;;;;753409;182;923929;-55
2022/09/15 05:18:51;;;;;;;12.37;7.90;;;;;;;;;;757153;183;920556;-56
2022/09/15 05:21:16;;;;;;;10.70;8.00;;;;;;;;;;752648;185;918674;-55
2022/09/15 05:23:42;;;;;;;12.57;8.50;;;;;;;;;;740711;182;918888;-55
2022/09/15 05:26:08;;;;;;;14.37;7.93;;;;;;;;;;748819;184;918821;-55
2022/09/15 05:28:34;;;;;;;11.37;7.70;;;;;;;;;;748358;184;815316;-55
2022/09/15 05:31:00;;;;;;;9.27;7.60;;;;;;;;;;751713;184;919357;-55
2022/09/15 05:33:26;;;;;;;15.80;7.20;;;;;;;;;;756789;184;916032;-55
2022/09/15 05:35:52;;;;;;;24.60;7.50;;;;;;;;;;752669;181;920462;-55
2022/09/15 05:38:18;;;;;;;12.53;6.97;;;;;;;;;;752715;183;819069;-55
2022/09/15 05:40:44;;;;;;;7.33;5.97;;;;;;;;;;753195;184;920321;-55
2022/09/15 05:43:10;;;;;;;11.10;6.80;;;;;;;;;;753522;185;820835;-55
2022/09/15 05:45:35;;;;;;;8.20;6.47;;;;;;;;;;750321;184;919230;-55
2022/09/15 05:48:02;;;;;;;13.52;8.77;;;;;;;;;;746437;184;919385;-55
2022/09/15 05:50:27;;;;;;;10.80;7.20;;;;;;;;;;751841;184;919373;-55
2022/09/15 05:52:53;;;;;;;12.17;8.50;;;;;;;;;;763628;183;815733;-55
2022/09/15 05:55:19;;;;;;;14.50;9.30;;;;;;;;;;755771;184;912906;-55
2022/09/15 05:57:45;;;;;;;11.20;8.23;;;;;;;;;;757348;184;920371;-55
2022/09/15 06:00:12;;;;;;;9.00;7.27;;;;;;;;;;758309;184;816342;-55
2022/09/15 06:02:38;;;;;;;9.27;6.57;;;;;;;;;;759515;184;914348;-54
2022/09/15 06:05:03;;;;;;;7.83;7.03;;;;;;;;;;754249;184;946596;-56
2022/09/15 06:07:29;;;;;;;9.97;5.73;;;;;;;;;;754655;184;818649;-55
2022/09/15 06:09:55;;;;;;;10.32;6.03;;;;;;;;;;751205;184;919659;-56
2022/09/15 06:12:21;;;;;;;6.27;5.50;;;;;;;;;;755158;184;918823;-55
2022/09/15 06:14:49;;;;;;;11.38;5.90;;;;;;;;;;758890;184;919204;-56
2022/09/15 06:17:14;;;;;;;9.07;5.83;;;;;;;;;;750118;183;915468;-58
2022/09/15 06:19:40;;;;;;;9.80;7.03;;;;;;;;;;748326;185;921197;-55
2022/09/15 06:22:06;;;;;;;6.63;5.93;;;;;;;;;;747320;185;917946;-56
2022/09/15 06:24:32;;;;;;;6.57;5.93;;;;;;;;;;754002;185;822638;-55
2022/09/15 06:26:58;;;;;;;7.00;6.10;;;;;;;;;;755853;180;908498;-56
2022/09/15 06:29:24;;;;;;;11.63;6.18;;;;;;;;;;751436;185;920633;-55
2022/09/15 06:31:50;;;;;;;7.20;5.60;;;;;;;;;;754916;185;919470;-55
2022/09/15 06:34:15;;;;;;;10.50;5.93;;;;;;;;;;736023;185;918786;-55
2022/09/15 06:36:41;;;;;;;9.13;6.03;;;;;;;;;;750005;185;919703;-56
2022/09/15 06:39:08;;;;;;;9.00;6.32;;;;;;;;;;759829;184;1022854;-56
2022/09/15 06:41:34;;;;;;;8.10;7.07;;;;;;;;;;762170;183;920195;-55
2022/09/15 06:43:59;;;;;;;7.60;6.80;;;;;;;;;;750332;185;820370;-55
2022/09/15 06:46:27;;;;;;;7.65;5.97;;;;;;;;;;750596;185;918879;-55
2022/09/15 06:48:52;;;;;;;7.53;5.30;;;;;;;;;;760836;184;819856;-55
2022/09/15 06:51:17;;;;;;;10.13;5.87;;;;;;;;;;752196;185;854861;-56
2022/09/15 06:53:43;;;;;;;9.50;5.57;;;;;;;;;;753033;182;943680;-55
2022/09/15 06:56:09;;;;;;;6.80;5.33;;;;;;;;;;755057;185;818057;-55
2022/09/15 06:58:35;;;;;;;10.40;6.30;;;;;;;;;;754244;183;817003;-55
2022/09/15 07:01:01;;;;;;;19.17;6.00;;;;;;;;;;752484;184;918566;-55
2022/09/15 07:03:26;;;;;;;8.00;5.60;;;;;;;;;;754115;184;813153;-55
2022/09/15 07:05:52;;;;;;;10.10;5.87;;;;;;;;;;754301;184;919941;-55
2022/09/15 07:08:18;;;;;;;11.10;6.93;;;;;;;;;;757581;182;918467;-55
2022/09/15 07:10:44;;;;;;;13.43;5.97;;;;;;;;;;749680;184;914696;-56
2022/09/15 07:13:10;;;;;;;6.10;5.50;;;;;;;;;;760281;183;940645;-55
2022/09/15 07:15:36;;;;;;;8.10;6.17;;;;;;;;;;753942;184;915769;-56
2022/09/15 07:18:03;;;;;;;8.00;6.55;;;;;;;;;;753249;184;919139;-54
2022/09/15 07:20:29;;;;;;;6.13;5.50;;;;;;;;;;761020;184;919575;-54
2022/09/15 07:22:55;;;;;;;10.70;5.70;;;;;;;;;;752436;184;921540;-55
2022/09/15 07:25:21;;;;;;;7.47;5.20;;;;;;;;;;752944;184;919472;-55
2022/09/15 07:27:47;;;;;;;5.90;5.07;;;;;;;;;;751984;184;920087;-55
2022/09/15 07:30:13;;;;;;;7.70;5.57;;;;;;;;;;751052;185;919670;-54
2022/09/15 07:32:38;;;;;;;7.97;5.80;;;;;;;;;;754567;184;919510;-54
2022/09/15 07:35:05;;;;;;;8.77;5.60;;;;;;;;;;747747;185;922529;-55
2022/09/15 07:37:32;;;;;;;8.02;6.22;;;;;;;;;;754138;184;919001;-55
2022/09/15 07:39:57;;;;;;;11.67;6.17;;;;;;;;;;758350;184;919218;-55
2022/09/15 07:42:23;;;;;;;8.23;5.97;;;;;;;;;;751448;185;895104;-54
2022/09/15 07:44:48;;;;;;;13.90;6.35;;;;;;;;;;757114;184;817246;-55
2022/09/15 07:47:14;;;;;;;10.43;6.80;;;;;;;;;;752502;184;919742;-55
2022/09/15 07:49:41;;;;;;;8.93;6.53;;;;;;;;;;752622;184;815359;-55
2022/09/15 07:52:06;;;;;;;10.37;8.10;;;;;;;;;;753214;185;919546;-55
2022/09/15 07:54:32;;;;;;;8.93;6.47;;;;;;;;;;752867;185;814813;-55
2022/09/15 07:56:58;;;;;;;8.33;6.33;;;;;;;;;;747627;185;855106;-54
2022/09/15 07:59:23;;;;;;;10.10;6.37;;;;;;;;;;751637;185;920105;-55
2022/09/15 08:01:50;;;;;;;9.70;5.53;;;;;;;;;;756242;185;613172;-54
2022/09/15 08:04:15;;;;;;;8.67;5.87;;;;;;;;;;749046;182;915605;-55
2022/09/15 08:06:41;;;;;;;6.57;5.50;;;;;;;;;;749346;182;944902;-55
2022/09/15 08:09:07;;;;;;;8.48;5.80;;;;;;;;;;760047;184;919007;-55
2022/09/15 08:11:33;;;;;;;9.10;6.70;;;;;;;;;;750616;184;924177;-55
2022/09/15 08:13:59;;;;;;;9.60;6.33;;;;;;;;;;752331;184;918440;-55
2022/09/15 08:16:25;;;;;;;11.77;5.45;;;;;;;;;;756837;181;923611;-55
2022/09/15 08:18:50;;;;;;;6.80;5.07;;;;;;;;;;754992;184;937249;-55
2022/09/15 08:21:16;;;;;;;8.03;5.90;;;;;;;;;;758881;184;763846;-55
2022/09/15 08:23:42;;;;;;;6.20;5.43;;;;;;;;;;755027;184;814413;-55
2022/09/15 08:26:08;;;;;;;7.20;5.50;;;;;;;;;;765332;180;916180;-55
2022/09/15 08:28:34;;;;;;;8.03;5.60;;;;;;;;;;754402;184;919189;-55
2022/09/15 08:31:00;;;;;;;8.48;5.57;;;;;;;;;;753445;184;919688;-55
2022/09/15 08:33:26;;;;;;;8.43;5.73;;;;;;;;;;759503;183;817556;-55
2022/09/15 08:35:51;;;;;;;9.63;5.90;;;;;;;;;;752127;183;893205;-55
2022/09/15 08:38:17;;;;;;;8.17;6.23;;;;;;;;;;752562;184;928184;-57
2022/09/15 08:40:43;;;;;;;8.23;6.57;;;;;;;;;;754797;184;911168;-56
2022/09/15 08:43:11;;;;;;;18.87;7.10;;;;;;;;;;751041;182;921076;-55
2022/09/15 08:45:37;;;;;;;9.43;7.10;;;;;;;;;;755406;182;917840;-56
2022/09/15 08:48:02;;;;;;;10.37;7.00;;;;;;;;;;748118;185;914598;-56
2022/09/15 08:50:30;;;;;;;9.37;6.83;;;;;;;;;;755088;185;919257;-56
2022/09/15 08:53:01;;;;;;;10.33;7.70;;;;;;;;;;750442;182;813215;-56
2022/09/15 08:55:32;;;;;;;8.93;7.60;;;;;;;;;;753050;183;917853;-56
2022/09/15 08:57:58;;;;;;;9.00;6.93;;;;;;;;;;751366;184;919058;-56
2022/09/15 09:00:24;;;;;;;8.60;7.00;;;;;;;;;;756992;185;816383;-56
2022/09/15 09:02:50;;;;;;;13.27;7.40;;;;;;;;;;756160;184;711993;-57
2022/09/15 09:05:20;;;;;;;8.70;7.43;;;;;;;;;;753023;184;926847;-56
2022/09/15 09:08:01;;;;;;;13.40;8.07;;;;;;;;;;754462;185;814658;-58
2022/09/15 09:10:41;;;;;;;9.10;7.03;;;;;;;;;;757572;184;949940;-56
2022/09/15 09:13:08;;;;;;;9.13;8.17;;;;;;;;;;758835;183;918910;-57
2022/09/15 09:15:35;;;;;;;11.03;8.67;;;;;;;;;;752002;185;816187;-56
2022/09/15 09:18:16;;;;;;;15.23;8.83;;;;;;;;;;755679;184;839579;-56
2022/09/15 09:20:49;;;;;;;10.67;7.67;;;;;;;;;;741801;185;773656;-56
2022/09/15 09:23:15;;;;;;;8.30;7.20;;;;;;;;;;755232;184;814429;-56
2022/09/15 09:25:41;;;;;;;9.80;6.90;;;;;;;;;;754350;180;818427;-56
2022/09/15 09:28:07;;;;;;;7.00;5.33;;;;;;;;;;755569;184;818432;-56
2022/09/15 09:30:32;;;;;;;8.50;6.62;;;;;;;;;;755582;184;919345;-57
2022/09/15 09:33:17;;;;;;;7.67;6.90;;;;;;;;;;757854;184;817215;-56
2022/09/15 09:35:44;;;;;;;8.13;6.70;;;;;;;;;;760820;184;717642;-56
2022/09/15 09:38:10;;;;;;;7.43;6.33;;;;;;;;;;756768;184;919176;-56
2022/09/15 09:40:35;;;;;;;9.17;7.10;;;;;;;;;;755717;184;908207;-56
2022/09/15 09:43:01;;;;;;;10.10;6.17;;;;;;;;;;755160;184;919548;-58
2022/09/15 09:45:27;;;;;;;11.53;7.20;;;;;;;;;;758850;184;919533;-58
2022/09/15 09:47:53;;;;;;;7.63;5.50;;;;;;;;;;750876;184;816055;-56
2022/09/15 09:50:25;;;;;;;7.55;5.90;;;;;;;;;;748893;185;919268;-57
2022/09/15 09:52:51;;;;;;;7.00;6.00;;;;;;;;;;754871;185;920429;-57
2022/09/15 09:55:20;;;;;;;7.43;5.67;;;;;;;;;;755913;184;919926;-56
2022/09/15 09:57:46;;;;;;;8.83;6.83;;;;;;;;;;750018;185;920110;-57
2022/09/15 10:00:18;;;;;;;9.13;5.47;;;;;;;;;;754854;183;919295;-56
2022/09/15 10:02:45;;;;;;;8.93;5.93;;;;;;;;;;755611;185;918651;-55
2022/09/15 10:05:11;;;;;;;7.20;4.63;;;;;;;;;;750395;184;919298;-58
2022/09/15 10:07:37;;;;;;;5.90;4.22;;;;;;;;;;754334;184;923098;-57
2022/09/15 10:10:03;;;;;;;5.33;4.03;;;;;;;;;;755000;184;817109;-57
2022/09/15 10:12:30;;;;;;;5.10;2.90;;;;;;;;;;761255;181;918571;-57
2022/09/15 10:14:56;;;;;;;4.00;2.67;;;;;;;;;;750943;184;919189;-57
2022/09/15 10:17:25;;;;;;;4.87;3.17;;;;;;;;;;754324;184;919424;-56
2022/09/15 10:19:53;;;;;;;6.37;2.60;;;;;;;;;;755858;185;917083;-55
2022/09/15 10:22:21;;;;;;;4.20;2.13;;;;;;;;;;754440;181;922554;-56
2022/09/15 10:24:49;;;;;;;3.60;2.40;;;;;;;;;;749525;184;914584;-56
2022/09/15 10:27:15;;;;;;;4.70;2.53;;;;;;;;;;750397;180;820743;-56
2022/09/15 10:29:41;;;;;;;2.80;1.90;;;;;;;;;;755267;185;823703;-57
2022/09/15 10:32:13;;;;;;;3.07;2.47;;;;;;;;;;753229;184;818882;-56
2022/09/15 10:34:38;;;;;;;4.23;2.20;;;;;;;;;;751560;184;823022;-56
2022/09/15 10:37:05;;;;;;;5.85;2.78;;;;;;;;;;757337;184;922658;-57
2022/09/15 10:39:34;;;;;;;8.53;3.27;;;;;;;;;;752198;185;919741;-56
2022/09/15 10:42:06;;;;;;;5.67;4.20;;;;;;;;;;756308;182;919855;-56
2022/09/15 10:44:36;;;;;;;9.23;4.67;;;;;;;;;;753169;184;919109;-56
2022/09/15 10:47:02;;;;;;;10.53;6.00;;;;;;;;;;747816;185;938457;-57
2022/09/15 10:49:31;;;;;;;9.77;4.77;;;;;;;;;;755040;184;919648;-56
2022/09/15 10:51:57;;;;;;;5.10;3.87;;;;;;;;;;755976;182;927132;-56
2022/09/15 10:54:27;;;;;;;4.90;4.28;;;;;;;;;;753942;180;941038;-56
2022/09/15 10:57:03;;;;;;;7.00;5.73;;;;;;;;;;759192;184;915812;-56
2022/09/15 10:59:31;;;;;;;5.07;3.27;;;;;;;;;;760030;184;919263;-57
2022/09/15 11:02:11;;;;;;;6.95;4.70;;;;;;;;;;755983;184;920752;-56
2022/09/15 11:04:38;;;;;;;5.20;3.63;;;;;;;;;;749694;184;919905;-57
2022/09/15 11:07:10;;;;;;;4.55;3.33;;;;;;;;;;756253;182;915957;-56
2022/09/15 11:09:45;;;;;;;5.40;2.50;;;;;;;;;;751289;185;918243;-56
2022/09/15 11:12:16;;;;;;;3.83;2.60;;;;;;;;;;752541;185;919098;-57
2022/09/15 11:14:50;;;;;;;4.30;3.22;;;;;;;;;;759694;185;918512;-56
2022/09/15 11:17:15;;;;;;;4.63;3.80;;;;;;;;;;748962;182;917916;-56
2022/09/15 11:19:44;;;;;;;5.27;3.10;;;;;;;;;;752137;184;919452;-56
2022/09/15 11:22:15;;;;;;;5.73;2.70;;;;;;;;;;745793;185;919689;-56
2022/09/15 11:24:42;;;;;;;4.50;2.70;;;;;;;;;;758258;185;928628;-56
2022/09/15 11:27:13;;;;;;;4.90;2.62;;;;;;;;;;748940;182;918306;-57
2022/09/15 11:29:54;;;;;;;4.60;2.60;;;;;;;;;;755204;184;918912;-56
2022/09/15 11:32:20;;;;;;;8.90;2.63;;;;;;;;;;746976;184;921742;-57
2022/09/15 11:34:48;;;;;;;3.72;2.70;;;;;;;;;;756923;184;918114;-56
2022/09/15 11:37:14;;;;;;;5.70;3.40;;;;;;;;;;754309;185;921994;-56
2022/09/15 11:39:56;;;;;;;3.87;2.77;;;;;;;;;;749574;185;817053;-58
2022/09/15 11:42:22;;;;;;;3.60;2.80;;;;;;;;;;753736;184;917451;-55
2022/09/15 11:44:47;;;;;;;5.17;3.83;;;;;;;;;;752982;184;916872;-55
2022/09/15 11:47:24;;;;;;;4.20;3.30;;;;;;;;;;756594;184;919721;-55
2022/09/15 11:50:06;;;;;;;4.90;3.50;;;;;;;;;;761476;184;919726;-54
2022/09/15 11:52:47;;;;;;;5.40;3.80;;;;;;;;;;758987;184;919261;-55
2022/09/15 11:55:29;;;;;;;4.63;3.87;;;;;;;;;;760144;181;920131;-55
2022/09/15 11:57:59;;;;;;;10.00;4.00;;;;;;;;;;758550;183;919584;-55
2022/09/15 12:00:25;;;;;;;7.80;3.97;;;;;;;;;;750470;184;919392;-54
2022/09/15 12:02:50;;;;;;;4.87;3.50;;;;;;;;;;756086;183;918063;-55
2022/09/15 12:05:22;;;;;;;6.67;3.70;;;;;;;;;;753576;184;919535;-55
2022/09/15 12:07:50;;;;;;;4.80;3.30;;;;;;;;;;758536;184;817109;-55
2022/09/15 12:10:20;;;;;;;6.20;4.87;;;;;;;;;;749572;184;921153;-55
2022/09/15 12:12:45;;;;;;;7.53;3.97;;;;;;;;;;752915;185;817201;-55
2022/09/15 12:15:13;;;;;;;5.00;4.00;;;;;;;;;;755158;182;818685;-54
2022/09/15 12:17:39;;;;;;;7.37;4.77;;;;;;;;;;751786;184;919397;-54
2022/09/15 12:20:07;;;;;;;7.80;5.80;;;;;;;;;;756787;184;914272;-55
2022/09/15 12:22:34;;;;;;;6.90;5.33;;;;;;;;;;756472;183;917645;-56
2022/09/15 12:25:01;;;;;;;7.27;5.37;;;;;;;;;;761074;181;920023;-55
2022/09/15 12:27:27;;;;;;;5.83;3.60;;;;;;;;;;752731;185;815589;-55
2022/09/15 12:29:53;;;;;;;8.33;5.03;;;;;;;;;;755232;185;810200;-55
2022/09/15 12:32:19;;;;;;;10.00;4.70;;;;;;;;;;752430;185;938259;-54
2022/09/15 12:35:00;;;;;;;7.27;4.07;;;;;;;;;;754635;182;916367;-54
2022/09/15 12:37:25;;;;;;;8.07;5.67;;;;;;;;;;747433;183;814554;-54
2022/09/15 12:39:52;;;;;;;7.27;5.07;;;;;;;;;;754087;184;825477;-55
2022/09/15 12:42:19;;;;;;;7.13;5.60;;;;;;;;;;758740;184;919280;-54
2022/09/15 12:44:47;;;;;;;9.23;5.70;;;;;;;;;;752570;185;921427;-55
2022/09/15 12:47:16;;;;;;;9.30;6.47;;;;;;;;;;752874;185;921005;-55
2022/09/15 12:49:42;;;;;;;7.43;5.78;;;;;;;;;;752390;184;919392;-54
2022/09/15 12:52:08;;;;;;;5.40;4.20;;;;;;;;;;755806;185;921784;-54
2022/09/15 12:54:34;;;;;;;7.10;5.10;;;;;;;;;;758566;184;920079;-55
2022/09/15 12:56:59;;;;;;;7.00;5.17;;;;;;;;;;749884;185;919382;-55
2022/09/15 12:59:25;;;;;;;8.45;5.62;;;;;;;;;;753250;185;920027;-55
2022/09/15 13:01:52;;;;;;;13.03;4.70;;;;;;;;;;756422;184;920360;-55
2022/09/15 13:04:25;;;;;;;5.63;3.50;;;;;;;;;;751209;184;1020314;-56
2022/09/15 13:06:56;;;;;;;4.07;3.33;;;;;;;;;;755685;184;920048;-56
2022/09/15 13:09:24;;;;;;;5.00;3.00;;;;;;;;;;753801;183;919446;-55
2022/09/15 13:11:50;;;;;;;4.10;3.13;;;;;;;;;;759813;183;818567;-55
2022/09/15 13:14:18;;;;;;;5.80;2.70;;;;;;;;;;748694;184;919284;-55
2022/09/15 13:16:45;;;;;;;4.67;2.83;;;;;;;;;;758194;184;872700;-56
2022/09/15 13:19:16;;;;;;;8.03;3.17;;;;;;;;;;760378;184;923689;-56
2022/09/15 13:21:42;;;;;;;4.67;3.70;;;;;;;;;;751413;184;921312;-56
2022/09/15 13:24:08;;;;;;;6.70;3.73;;;;;;;;;;756329;184;920022;-55
2022/09/15 13:26:34;;;;;;;14.40;9.47;;;;;;;;;;754075;184;919548;-56
2022/09/15 13:29:00;;;;;;;6.47;3.90;;;;;;;;;;757221;184;715915;-55
2022/09/15 13:31:33;;;;;;;7.40;3.60;;;;;;;;;;756647;184;817803;-56
2022/09/15 13:34:00;;;;;;;4.50;3.27;;;;;;;;;;755033;184;926403;-54
2022/09/15 13:36:38;;;;;;;7.30;4.20;;;;;;;;;;754345;183;919647;-55
2022/09/15 13:39:06;;;;;;;4.10;2.93;;;;;;;;;;745412;187;919697;-55
2022/09/15 13:41:48;;;;;;;7.17;3.60;;;;;;;;;;749439;183;817500;-56
2022/09/15 13:44:29;;;;;;;8.80;3.80;;;;;;;;;;753010;184;920083;-56
2022/09/15 13:47:11;;;;;;;8.23;4.40;;;;;;;;;;752571;183;918586;-56
2022/09/15 13:49:53;;;;;;;4.30;3.53;;;;;;;;;;753136;181;918040;-56
2022/09/15 13:52:22;;;;;;;6.83;4.47;;;;;;;;;;756951;183;921781;-55
2022/09/15 13:54:54;;;;;;;5.40;4.00;;;;;;;;;;754737;184;907353;-55
2022/09/15 13:57:20;;;;;;;7.70;4.13;;;;;;;;;;749941;180;919799;-55
2022/09/15 13:59:45;;;;;;;7.47;4.40;;;;;;;;;;753064;185;823837;-56
2022/09/15 14:02:11;;;;;;;4.23;3.70;;;;;;;;;;755376;184;919804;-56
2022/09/15 14:04:37;;;;;;;6.55;3.47;;;;;;;;;;749481;184;920870;-56
2022/09/15 14:07:03;;;;;;;9.30;6.40;;;;;;;;;;757724;184;917854;-55
2022/09/15 14:09:30;;;;;;;6.37;5.57;;;;;;;;;;750718;184;919635;-56
2022/09/15 14:11:55;;;;;;;7.83;5.20;;;;;;;;;;750755;184;921385;-55
2022/09/15 14:14:21;;;;;;;5.70;4.47;;;;;;;;;;751568;185;922430;-56
2022/09/15 14:16:47;;;;;;;7.30;5.73;;;;;;;;;;759287;182;921955;-55
2022/09/15 14:19:19;;;;;;;16.70;10.53;;;;;;;;;;752235;183;918724;-56
2022/09/15 14:21:47;;;;;;;20.07;11.47;;;;;;;;;;750856;184;918257;-55